createdAt,value
2019-05-20T00:01:49.814Z,8.30
2019-05-20T00:04:19.774Z,8.27
2019-05-20T00:06:49.992Z,6.63
2019-05-20T00:09:20.148Z,12.90
2019-05-20T00:23:20.437Z,9.43
2019-05-20T00:25:50.308Z,12.57
2019-05-20T00:57:57.353Z,6.00
2019-05-20T01:07:41.064Z,12.23
2019-05-20T01:10:11.103Z,9.10
2019-05-20T01:36:50.932Z,6.10
2019-05-20T01:56:41.469Z,4.87
2019-05-20T01:59:11.439Z,7.57
2019-05-20T02:08:42.686Z,8.13
2019-05-20T02:25:51.217Z,6.70
2019-05-20T02:28:21.169Z,10.10
2019-05-20T02:37:33.407Z,6.23
2019-05-20T02:47:16.953Z,7.67
2019-05-20T03:04:43.800Z,10.37
2019-05-20T03:14:34.739Z,5.73
2019-05-20T03:32:01.572Z,7.60
2019-05-20T03:41:51.201Z,11.90
2019-05-20T03:51:40.665Z,12.00
2019-05-20T04:08:51.544Z,11.93
2019-05-20T04:11:21.542Z,13.07
2019-05-20T04:13:52.075Z,15.90
2019-05-20T04:16:22.105Z,19.90
2019-05-20T04:18:54.113Z,13.73
2019-05-20T04:21:23.740Z,11.80
2019-05-20T04:23:53.785Z,11.80
2019-05-20T04:30:18.898Z,12.83
2019-05-20T04:40:01.785Z,10.10
2019-05-20T04:42:32.170Z,8.40
2019-05-20T04:59:24.210Z,11.73
2019-05-20T05:01:54.216Z,11.00
2019-05-20T05:04:24.210Z,8.50
2019-05-20T05:20:54.186Z,7.73
2019-05-20T05:23:24.865Z,6.20
2019-05-20T05:25:55.021Z,9.77
2019-05-20T05:32:17.851Z,7.73
2019-05-20T05:34:47.855Z,8.17
2019-05-20T05:37:17.868Z,7.80
2019-05-20T05:43:46.421Z,5.80
2019-05-20T05:46:16.487Z,5.73
2019-05-20T05:48:46.517Z,5.97
2019-05-20T05:51:16.680Z,5.60
2019-05-20T06:00:41.729Z,8.57
2019-05-20T06:03:11.867Z,6.87
2019-05-20T06:05:41.799Z,7.87
2019-05-20T06:08:11.819Z,5.97
2019-05-20T06:14:14.591Z,11.33
2019-05-20T06:24:04.322Z,12.43
2019-05-20T06:35:54.528Z,13.87
2019-05-20T06:38:40.798Z,14.40
2019-05-20T06:47:53.469Z,19.10
2019-05-20T06:50:23.547Z,19.67
2019-05-20T06:52:53.562Z,17.83
2019-05-20T06:55:23.705Z,18.50
2019-05-20T06:57:54.100Z,19.70
2019-05-20T07:00:37.442Z,21.17
2019-05-20T07:03:07.543Z,19.20
2019-05-20T07:05:37.758Z,24.23
2019-05-20T07:08:07.915Z,21.27
2019-05-20T07:10:38.059Z,19.43
2019-05-20T07:13:08.222Z,21.47
2019-05-20T07:15:38.430Z,17.97
2019-05-20T07:18:08.911Z,20.47
2019-05-20T07:20:38.934Z,19.00
2019-05-20T07:23:08.915Z,19.00
2019-05-20T07:25:38.863Z,17.97
2019-05-20T07:28:08.856Z,18.37
2019-05-20T07:30:39.376Z,22.67
2019-05-20T07:33:09.598Z,23.10
2019-05-20T07:35:39.986Z,17.57
2019-05-20T07:44:32.732Z,23.37
2019-05-20T07:47:02.842Z,27.60
2019-05-20T07:56:19.914Z,27.77
2019-05-20T08:06:03.008Z,29.00
2019-05-20T08:35:08.348Z,28.47
2019-05-20T08:37:45.193Z,20.00
2019-05-20T08:40:10.298Z,20.43
2019-05-20T08:42:40.317Z,28.00
2019-05-20T08:45:10.550Z,25.80
2019-05-20T08:47:40.735Z,23.23
2019-05-20T08:50:15.965Z,30.80
2019-05-20T08:52:42.825Z,21.83
2019-05-20T08:59:03.944Z,23.80
2019-05-20T09:08:53.449Z,27.80
2019-05-20T09:11:23.591Z,28.20
2019-05-20T09:13:53.606Z,29.40
2019-05-20T09:16:23.793Z,28.33
2019-05-20T09:18:53.716Z,28.13
2019-05-20T09:21:23.937Z,29.43
2019-05-20T09:23:54.124Z,29.70
2019-05-20T09:26:24.133Z,25.97
2019-05-20T09:28:54.197Z,27.00
2019-05-20T09:31:24.548Z,24.20
2019-05-20T09:33:54.710Z,24.33
2019-05-20T09:36:26.023Z,26.03
2019-05-20T09:38:56.096Z,23.90
2019-05-20T09:41:26.152Z,30.13
2019-05-20T09:43:56.118Z,25.60
2019-05-20T09:57:55.616Z,32.17
2019-05-20T10:07:39.090Z,27.47
2019-05-20T10:10:09.904Z,33.90
2019-05-20T10:12:46.628Z,28.90
2019-05-20T10:15:12.454Z,34.23
2019-05-20T10:17:42.604Z,33.07
2019-05-20T10:20:12.851Z,36.53
2019-05-20T10:22:43.037Z,34.97
2019-05-20T10:25:13.551Z,31.73
2019-05-20T10:27:43.521Z,39.23
2019-05-20T10:30:13.968Z,34.90
2019-05-20T10:32:44.080Z,36.70
2019-05-20T10:35:14.922Z,37.77
2019-05-20T10:37:45.761Z,38.37
2019-05-20T10:51:39.407Z,45.90
2019-05-20T10:54:09.499Z,46.03
2019-05-20T10:56:39.547Z,47.83
2019-05-20T10:59:11.954Z,44.50
2019-05-20T11:01:41.418Z,46.27
2019-05-20T11:04:11.456Z,44.83
2019-05-20T11:06:41.550Z,43.30
2019-05-20T11:13:03.534Z,43.53
2019-05-20T11:15:33.611Z,40.30
2019-05-20T11:18:03.573Z,46.90
2019-05-20T11:20:33.501Z,46.07
2019-05-20T11:23:03.709Z,50.70
2019-05-20T11:25:33.731Z,53.77
2019-05-20T11:28:03.792Z,50.80
2019-05-20T11:30:33.877Z,56.57
2019-05-20T11:33:04.009Z,62.10
2019-05-20T11:35:34.120Z,59.80
2019-05-20T11:38:04.236Z,58.10
2019-05-20T11:40:34.115Z,63.77
2019-05-20T11:43:04.075Z,63.57
2019-05-20T11:45:34.060Z,70.00
2019-05-20T11:48:04.007Z,68.50
2019-05-20T11:50:33.983Z,67.60
2019-05-20T11:53:03.923Z,73.23
2019-05-20T11:55:33.856Z,71.93
2019-05-20T11:58:15.160Z,60.20
2019-05-20T12:00:35.614Z,77.33
2019-05-20T12:03:05.622Z,68.30
2019-05-20T12:05:35.530Z,70.77
2019-05-20T12:08:05.712Z,79.37
2019-05-20T12:10:35.611Z,79.90
2019-05-20T12:13:05.587Z,73.93
2019-05-20T12:15:35.461Z,66.43
2019-05-20T12:29:34.374Z,61.37
2019-05-20T12:32:04.396Z,65.73
2019-05-20T12:34:34.428Z,64.40
2019-05-20T12:37:04.413Z,56.60
2019-05-20T12:39:34.444Z,65.90
2019-05-20T12:53:28.564Z,46.33
2019-05-20T12:55:58.529Z,48.20
2019-05-20T12:58:28.526Z,54.40
2019-05-20T13:00:58.654Z,56.00
2019-05-20T13:07:39.510Z,46.33
2019-05-20T13:10:26.686Z,40.80
2019-05-20T13:12:41.700Z,58.10
2019-05-20T13:15:13.679Z,53.70
2019-05-20T13:17:45.183Z,50.00
2019-05-20T13:20:15.991Z,51.60
2019-05-20T13:41:45.982Z,61.27
2019-05-20T13:51:38.411Z,46.83
2019-05-20T14:20:40.364Z,49.50
2019-05-20T14:23:10.339Z,40.03
2019-05-20T14:32:02.163Z,51.60
2019-05-20T14:34:32.726Z,56.23
2019-05-20T14:54:12.422Z,42.93
2019-05-20T14:56:42.433Z,46.23
2019-05-20T14:59:12.341Z,50.40
2019-05-20T15:07:50.244Z,51.90
2019-05-20T15:10:20.812Z,45.97
2019-05-20T15:12:50.847Z,55.73
2019-05-20T15:15:20.956Z,55.40
2019-05-20T15:17:50.984Z,57.17
2019-05-20T15:20:21.110Z,53.20
2019-05-20T15:22:51.122Z,52.47
2019-05-20T15:25:21.342Z,58.03
2019-05-20T15:31:42.042Z,52.30
2019-05-20T15:34:12.613Z,51.63
2019-05-20T15:36:42.697Z,60.70
2019-05-20T15:39:12.865Z,64.13
2019-05-20T15:41:42.905Z,58.67
2019-05-20T15:44:12.812Z,60.40
2019-05-20T15:46:43.396Z,61.53
2019-05-20T15:49:13.347Z,56.40
2019-05-20T15:51:43.236Z,64.00
2019-05-20T15:54:13.214Z,72.70
2019-05-20T15:56:43.252Z,74.37
2019-05-20T15:59:13.816Z,71.33
2019-05-20T16:04:54.971Z,68.40
2019-05-20T16:07:25.474Z,74.03
2019-05-20T16:09:55.372Z,48.90
2019-05-20T16:12:25.312Z,56.63
2019-05-20T16:14:55.331Z,52.80
2019-05-20T16:21:17.064Z,50.23
2019-05-20T16:31:06.255Z,57.53
2019-05-20T16:33:36.280Z,52.93
2019-05-20T16:36:06.415Z,55.83
2019-05-20T16:38:36.578Z,53.80
2019-05-20T16:41:06.512Z,57.53
2019-05-20T16:43:36.506Z,54.63
2019-05-20T16:46:06.420Z,53.20
2019-05-20T16:48:37.171Z,62.20
2019-05-20T16:51:07.151Z,56.03
2019-05-20T16:53:37.090Z,57.10
2019-05-20T16:56:07.052Z,39.40
2019-05-20T16:58:37.071Z,44.77
2019-05-20T17:01:07.012Z,51.60
2019-05-20T17:03:37.108Z,41.83
2019-05-20T17:06:07.086Z,57.40
2019-05-20T17:08:37.144Z,50.70
2019-05-20T17:11:07.183Z,49.10
2019-05-20T17:13:37.200Z,47.10
2019-05-20T17:16:07.906Z,50.70
2019-05-20T17:18:37.941Z,52.30
2019-05-20T17:25:00.336Z,53.30
2019-05-20T17:27:30.351Z,56.90
2019-05-20T17:30:00.925Z,71.97
2019-05-20T17:44:00.262Z,76.00
2019-05-20T17:46:30.451Z,63.97
2019-05-20T17:49:00.490Z,62.37
2019-05-20T17:51:30.477Z,79.37
2019-05-20T17:57:51.521Z,67.47
2019-05-20T18:00:23.304Z,82.50
2019-05-20T18:02:53.440Z,60.87
2019-05-20T18:05:23.528Z,75.30
2019-05-20T18:07:53.666Z,88.00
2019-05-20T18:21:53.130Z,84.33
2019-05-20T18:24:23.097Z,78.20
2019-05-20T18:26:56.094Z,99.97
2019-05-20T18:33:17.299Z,118.57
2019-05-20T18:35:47.266Z,98.27
2019-05-20T18:38:17.771Z,107.60
2019-05-20T18:40:47.850Z,107.60
2019-05-20T18:43:17.748Z,112.50
2019-05-20T18:45:47.737Z,114.50
2019-05-20T18:52:02.739Z,107.83
2019-05-20T18:54:32.964Z,117.07
2019-05-20T18:57:03.063Z,121.70
2019-05-20T18:59:33.160Z,133.90
2019-05-20T19:02:05.686Z,140.23
2019-05-20T19:04:35.597Z,121.90
2019-05-20T19:07:05.647Z,135.80
2019-05-20T19:09:35.689Z,133.80
2019-05-20T19:15:57.353Z,143.17
2019-05-20T19:18:27.398Z,141.77
2019-05-20T19:20:57.632Z,134.50
2019-05-20T19:23:27.538Z,140.00
2019-05-20T19:25:58.390Z,149.07
2019-05-20T19:28:28.314Z,135.57
2019-05-20T19:30:58.307Z,129.00
2019-05-20T19:33:28.212Z,159.67
2019-05-20T19:35:58.279Z,143.93
2019-05-20T19:38:31.859Z,157.10
2019-05-20T19:40:59.930Z,137.30
2019-05-20T19:43:30.108Z,143.57
2019-05-20T19:46:00.250Z,162.70
2019-05-20T19:48:30.143Z,131.57
2019-05-20T19:51:00.160Z,125.33
2019-05-20T19:53:30.645Z,146.17
2019-05-20T19:56:00.614Z,139.03
2019-05-20T19:58:30.851Z,138.17
2019-05-20T20:01:00.984Z,103.33
2019-05-20T20:03:30.961Z,117.33
2019-05-20T20:06:01.191Z,123.07
2019-05-20T20:08:31.151Z,116.13
2019-05-20T20:11:01.065Z,112.60
2019-05-20T20:13:33.947Z,111.60
2019-05-20T20:16:03.326Z,126.33
2019-05-20T20:18:33.537Z,132.73
2019-05-20T20:21:03.647Z,106.93
2019-05-20T20:23:33.771Z,119.93
2019-05-20T20:26:03.840Z,132.00
2019-05-20T20:28:33.824Z,136.90
2019-05-20T20:31:03.882Z,98.30
2019-05-20T20:33:33.897Z,128.97
2019-05-20T20:36:04.246Z,135.17
2019-05-20T20:38:34.212Z,137.07
2019-05-20T20:41:04.131Z,154.80
2019-05-20T20:43:34.113Z,153.53
2019-05-20T21:24:58.707Z,116.80
2019-05-20T21:50:05.340Z,94.13
2019-05-20T22:07:14.256Z,110.40
2019-05-20T22:09:44.342Z,111.47
2019-05-20T22:12:14.506Z,142.43
2019-05-20T22:14:44.454Z,124.93
2019-05-20T22:21:05.759Z,134.17
2019-05-20T22:23:49.889Z,133.63
2019-05-20T22:52:47.420Z,82.40
2019-05-20T22:55:17.426Z,100.37
2019-05-20T22:57:47.413Z,98.83
2019-05-20T23:00:18.661Z,86.67
2019-05-20T23:06:39.822Z,103.23
2019-05-20T23:39:15.531Z,50.53
